createdAt,value
2023-04-18T00:01:39.785Z,96324.50
2023-04-18T00:04:08.874Z,96329.11
2023-04-18T00:06:37.362Z,96329.02
2023-04-18T00:09:05.469Z,96332.17
2023-04-18T00:11:34.722Z,96331.55
2023-04-18T00:14:03.511Z,96335.22
2023-04-18T00:16:33.353Z,96330.87
2023-04-18T00:19:02.513Z,96337.30
2023-04-18T00:21:32.098Z,96338.40
2023-04-18T00:24:00.200Z,96336.77
2023-04-18T00:26:28.373Z,96340.13
2023-04-18T00:28:58.400Z,96344.76
2023-04-18T00:31:26.557Z,96346.77
2023-04-18T00:33:54.837Z,96346.86
2023-04-18T00:36:24.858Z,96346.77
2023-04-18T00:38:53.028Z,96346.74
2023-04-18T00:41:21.925Z,96348.35
2023-04-18T00:43:49.995Z,96356.02
2023-04-18T00:46:18.175Z,96350.77
2023-04-18T00:48:46.957Z,96351.08
2023-04-18T00:51:15.134Z,96355.29
2023-04-18T00:53:43.403Z,96360.03
2023-04-18T00:56:11.485Z,96356.33
2023-04-18T00:58:41.305Z,96356.65
2023-04-18T01:01:09.755Z,96352.39
2023-04-18T01:03:39.900Z,96348.89
2023-04-18T01:06:08.162Z,96344.36
2023-04-18T01:08:36.242Z,96341.70
2023-04-18T01:11:04.304Z,96339.32
2023-04-18T01:13:32.275Z,96341.79
2023-04-18T01:16:00.600Z,96345.11
2023-04-18T01:18:31.698Z,96346.48
2023-04-18T01:21:00.498Z,96346.53
2023-04-18T01:23:28.562Z,96350.20
2023-04-18T01:25:56.640Z,96348.52
2023-04-18T01:28:27.844Z,96347.79
2023-04-18T01:30:57.202Z,96350.35
2023-04-18T01:33:25.666Z,96346.21
2023-04-18T01:35:53.744Z,96345.46
2023-04-18T01:38:22.934Z,96346.66
2023-04-18T01:40:50.890Z,96342.80
2023-04-18T01:43:18.869Z,96340.80
2023-04-18T01:45:46.843Z,96343.48
2023-04-18T01:48:14.805Z,96344.23
2023-04-18T01:50:43.192Z,96341.90
2023-04-18T01:53:11.972Z,96340.88
2023-04-18T01:55:39.835Z,96342.53
2023-04-18T01:58:08.134Z,96341.08
2023-04-18T02:00:36.685Z,96345.84
2023-04-18T02:03:06.922Z,96341.27
2023-04-18T02:05:36.537Z,96342.64
2023-04-18T02:08:04.818Z,96341.23
2023-04-18T02:10:32.784Z,96341.40
2023-04-18T02:13:00.857Z,96341.55
2023-04-18T02:15:29.037Z,96337.20
2023-04-18T02:18:00.299Z,96338.20
2023-04-18T02:20:31.720Z,96333.16
2023-04-18T02:23:02.538Z,96339.61
2023-04-18T02:25:31.149Z,96337.05
2023-04-18T02:27:59.129Z,96339.58
2023-04-18T02:30:27.393Z,96345.52
2023-04-18T02:32:57.280Z,96345.17
2023-04-18T02:35:26.161Z,96340.70
2023-04-18T02:37:54.190Z,96338.58
2023-04-18T02:40:22.251Z,96337.67
2023-04-18T02:42:50.510Z,96335.30
2023-04-18T02:45:18.691Z,96341.48
2023-04-18T02:47:54.568Z,96338.69
2023-04-18T02:50:24.777Z,96338.76
2023-04-18T02:52:53.658Z,96342.48
2023-04-18T02:55:22.672Z,96344.77
2023-04-18T02:57:50.728Z,96342.17
2023-04-18T03:00:45.533Z,96347.92
2023-04-18T03:03:36.841Z,96340.80
2023-04-18T03:06:16.590Z,96342.89
2023-04-18T03:08:44.651Z,96342.21
2023-04-18T03:11:12.625Z,96342.52
2023-04-18T03:13:41.002Z,96349.38
2023-04-18T03:16:09.634Z,96347.39
2023-04-18T03:18:38.076Z,96351.67
2023-04-18T03:21:07.360Z,96352.41
2023-04-18T03:23:35.953Z,96357.05
2023-04-18T03:26:06.619Z,96353.04
2023-04-18T03:28:35.582Z,96357.71
2023-04-18T03:31:04.042Z,96352.48
2023-04-18T03:33:33.474Z,96351.36
2023-04-18T03:36:08.067Z,96348.36
2023-04-18T03:38:36.153Z,96347.59
2023-04-18T03:41:04.256Z,96351.70
2023-04-18T03:43:34.863Z,96352.70
2023-04-18T03:46:03.316Z,96346.52
2023-04-18T03:48:35.923Z,96352.23
2023-04-18T03:51:06.451Z,96345.30
2023-04-18T03:53:36.469Z,96357.60
2023-04-18T03:56:04.857Z,96360.45
2023-04-18T03:59:02.139Z,96363.91
2023-04-18T04:01:31.751Z,96365.83
2023-04-18T04:04:01.756Z,96367.11
2023-04-18T04:06:32.358Z,96370.92
2023-04-18T04:09:01.875Z,96373.86
2023-04-18T04:11:30.260Z,96376.48
2023-04-18T04:13:58.531Z,96378.84
2023-04-18T04:16:31.142Z,96371.68
2023-04-18T04:18:59.381Z,96378.89
2023-04-18T04:21:32.480Z,96381.63
2023-04-18T04:24:01.616Z,96383.54
2023-04-18T04:26:50.871Z,96387.92
2023-04-18T04:29:21.773Z,96392.09
2023-04-18T04:31:50.201Z,96390.77
2023-04-18T04:34:25.963Z,96392.03
2023-04-18T04:36:54.896Z,96392.25
2023-04-18T04:39:23.927Z,96394.11
2023-04-18T04:42:04.767Z,96394.36
2023-04-18T04:44:41.742Z,96392.21
2023-04-18T04:47:10.024Z,96394.31
2023-04-18T04:49:38.800Z,96390.48
2023-04-18T04:52:07.176Z,96392.52
2023-04-18T04:54:35.586Z,96389.09
2023-04-18T04:57:04.555Z,96387.54
2023-04-18T04:59:32.634Z,96387.56
2023-04-18T05:02:01.988Z,96392.20
2023-04-18T05:04:30.483Z,96396.95
2023-04-18T05:06:58.788Z,96402.33
2023-04-18T05:09:27.064Z,96402.73
2023-04-18T05:11:55.145Z,96400.15
2023-04-18T05:14:23.204Z,96402.38
2023-04-18T05:16:51.417Z,96407.86
2023-04-18T05:19:19.755Z,96412.77
2023-04-18T05:21:47.934Z,96414.86
2023-04-18T05:24:16.132Z,96416.08
2023-04-18T05:26:44.488Z,96427.60
2023-04-18T05:29:12.552Z,96425.09
2023-04-18T05:31:40.625Z,96429.06
2023-04-18T05:37:02.889Z,96420.57
2023-04-18T05:39:30.863Z,96420.35
2023-04-18T05:41:58.948Z,96426.51
2023-04-18T05:44:26.916Z,96419.13
2023-04-18T05:46:55.089Z,96417.92
2023-04-18T05:49:23.753Z,96413.67
2023-04-18T05:51:53.112Z,96416.46
2023-04-18T05:54:25.206Z,96414.67
2023-04-18T05:56:54.011Z,96416.27
2023-04-18T05:59:22.198Z,96418.94
2023-04-18T06:01:50.235Z,96414.89
2023-04-18T06:04:19.694Z,96418.58
2023-04-18T06:06:48.074Z,96421.68
2023-04-18T06:09:16.086Z,96422.81
2023-04-18T06:11:44.035Z,96421.65
2023-04-18T06:14:12.508Z,96421.89
2023-04-18T06:16:40.945Z,96422.31
2023-04-18T06:19:09.044Z,96422.93
2023-04-18T06:21:36.955Z,96425.83
2023-04-18T06:24:05.143Z,96418.79
2023-04-18T06:26:33.132Z,96412.43
2023-04-18T06:29:01.223Z,96413.28
2023-04-18T06:31:29.370Z,96409.05
2023-04-18T06:33:57.454Z,96408.25
2023-04-18T06:36:27.001Z,96410.69
2023-04-18T06:38:55.108Z,96404.80
2023-04-18T06:41:25.929Z,96408.23
2023-04-18T06:44:03.338Z,96402.55
2023-04-18T06:46:33.178Z,96405.70
2023-04-18T06:49:01.391Z,96401.71
2023-04-18T06:51:29.437Z,96403.72
2023-04-18T06:53:57.421Z,96403.42
2023-04-18T06:56:26.204Z,96406.50
2023-04-18T06:58:54.158Z,96406.42
2023-04-18T07:01:22.228Z,96403.42
2023-04-18T07:03:50.464Z,96404.75
2023-04-18T07:06:19.071Z,96405.10
2023-04-18T07:08:47.125Z,96408.19
2023-04-18T07:11:15.965Z,96409.36
2023-04-18T07:13:45.379Z,96408.39
2023-04-18T07:16:13.408Z,96414.02
2023-04-18T07:18:41.574Z,96409.70
2023-04-18T07:21:09.541Z,96409.03
2023-04-18T07:23:37.835Z,96412.16
2023-04-18T07:26:06.202Z,96411.73
2023-04-18T07:28:34.384Z,96412.58
2023-04-18T07:31:05.997Z,96411.56
2023-04-18T07:33:35.347Z,96416.15
2023-04-18T07:36:03.504Z,96417.80
2023-04-18T07:38:31.589Z,96417.36
2023-04-18T07:41:00.682Z,96419.77
2023-04-18T07:43:28.698Z,96416.88
2023-04-18T07:45:56.836Z,96417.54
2023-04-18T07:48:27.984Z,96419.27
2023-04-18T07:50:55.961Z,96412.85
2023-04-18T07:53:23.918Z,96416.48
2023-04-18T07:55:51.900Z,96413.75
2023-04-18T07:58:19.957Z,96414.84
2023-04-18T08:00:47.927Z,96410.63
2023-04-18T08:03:16.403Z,96411.27
2023-04-18T08:05:44.789Z,96410.50
2023-04-18T08:08:12.843Z,96411.91
2023-04-18T08:10:41.231Z,96410.75
2023-04-18T08:13:09.708Z,96406.97
2023-04-18T08:15:37.651Z,96409.09
2023-04-18T08:18:05.796Z,96407.88
2023-04-18T08:20:36.030Z,96401.86
2023-04-18T08:23:08.664Z,96397.98
2023-04-18T08:25:37.642Z,96398.14
2023-04-18T08:28:05.628Z,96404.21
2023-04-18T08:30:34.110Z,96403.58
2023-04-18T08:33:02.758Z,96398.67
2023-04-18T08:35:31.122Z,96400.06
2023-04-18T08:37:59.339Z,96400.16
2023-04-18T08:40:27.532Z,96400.12
2023-04-18T08:42:56.412Z,96403.04
2023-04-18T08:45:43.164Z,96405.23
2023-04-18T08:48:28.802Z,96404.14
2023-04-18T08:50:58.466Z,96401.28
2023-04-18T08:53:45.170Z,96403.52
2023-04-18T08:56:14.844Z,96401.19
2023-04-18T08:58:45.244Z,96402.31
2023-04-18T09:01:56.826Z,96400.21
2023-04-18T09:04:45.206Z,96399.44
2023-04-18T09:07:15.190Z,96396.77
2023-04-18T09:09:46.080Z,96401.37
2023-04-18T09:12:19.754Z,96398.88
2023-04-18T09:14:50.455Z,96398.09
2023-04-18T09:17:38.661Z,96395.75
2023-04-18T09:20:10.669Z,96394.85
2023-04-18T09:22:52.140Z,96395.70
2023-04-18T09:25:44.577Z,96398.05
2023-04-18T09:28:23.434Z,96396.55
2023-04-18T09:30:52.757Z,96394.02
2023-04-18T09:33:33.415Z,96400.06
2023-04-18T09:36:17.834Z,96390.61
2023-04-18T09:38:46.178Z,96391.84
2023-04-18T09:41:16.595Z,96391.84
2023-04-18T09:43:46.264Z,96392.03
2023-04-18T09:46:14.453Z,96391.30
2023-04-18T09:48:42.771Z,96389.73
2023-04-18T09:51:11.791Z,96388.98
2023-04-18T09:53:48.013Z,96386.49
2023-04-18T09:56:27.696Z,96389.34
2023-04-18T09:59:29.626Z,96388.64
2023-04-18T10:01:57.750Z,96389.56
2023-04-18T10:04:26.022Z,96387.79
2023-04-18T10:06:54.207Z,96389.52
2023-04-18T10:09:22.175Z,96393.31
2023-04-18T10:11:50.265Z,96386.62
2023-04-18T10:14:18.381Z,96382.89
2023-04-18T10:16:49.297Z,96379.08
2023-04-18T10:19:26.324Z,96383.09
2023-04-18T10:22:00.500Z,96379.14
2023-04-18T10:24:50.260Z,96378.06
2023-04-18T10:27:18.458Z,96378.95
2023-04-18T10:32:24.655Z,96377.44
2023-04-18T10:34:56.284Z,96383.95
2023-04-18T10:40:06.771Z,96373.11
2023-04-18T10:43:01.140Z,96374.45
2023-04-18T10:45:32.625Z,96374.09
2023-04-18T10:48:27.886Z,96368.55
2023-04-18T10:51:15.880Z,96369.23
2023-04-18T10:54:01.996Z,96365.54
2023-04-18T10:56:30.121Z,96365.25
2023-04-18T10:59:00.001Z,96362.41
2023-04-18T11:01:32.381Z,96359.36
2023-04-18T11:04:01.491Z,96357.50
2023-04-18T11:06:31.451Z,96357.55
2023-04-18T11:09:12.436Z,96360.86
2023-04-18T11:11:41.640Z,96359.23
2023-04-18T11:14:09.871Z,96359.55
2023-04-18T11:16:38.172Z,96360.99
2023-04-18T11:19:20.296Z,96357.23
2023-04-18T11:21:48.251Z,96357.94
2023-04-18T11:24:23.749Z,96355.55
2023-04-18T11:26:55.901Z,96350.35
2023-04-18T11:29:24.290Z,96348.85
2023-04-18T11:31:55.820Z,96348.48
2023-04-18T11:34:32.161Z,96343.36
2023-04-18T11:37:00.402Z,96343.83
2023-04-18T11:39:28.467Z,96340.85
2023-04-18T11:41:57.448Z,96337.02
2023-04-18T11:44:26.246Z,96339.96
2023-04-18T11:46:54.284Z,96336.25
2023-04-18T11:49:29.005Z,96337.27
2023-04-18T11:51:57.127Z,96335.73
2023-04-18T11:54:41.626Z,96337.33
2023-04-18T11:57:19.444Z,96337.23
2023-04-18T11:59:54.081Z,96332.98
2023-04-18T12:02:22.754Z,96328.42
2023-04-18T12:04:53.459Z,96329.07
2023-04-18T12:07:35.115Z,96323.56
2023-04-18T12:10:04.907Z,96316.85
2023-04-18T12:12:32.982Z,96315.02
2023-04-18T12:15:14.561Z,96309.48
2023-04-18T12:17:46.797Z,96313.29
2023-04-18T12:20:16.133Z,96310.06
2023-04-18T12:22:47.581Z,96308.35
2023-04-18T12:25:24.941Z,96304.98
2023-04-18T12:28:00.675Z,96307.78
2023-04-18T12:30:34.101Z,96306.28
2023-04-18T12:33:04.452Z,96309.05
2023-04-18T12:35:32.859Z,96306.98
2023-04-18T12:38:01.725Z,96307.11
2023-04-18T12:40:30.011Z,96302.55
2023-04-18T12:42:58.488Z,96302.67
2023-04-18T12:45:26.630Z,96300.96
2023-04-18T12:47:54.754Z,96302.36
2023-04-18T12:50:24.929Z,96299.42
2023-04-18T12:52:54.083Z,96298.64
2023-04-18T12:55:23.047Z,96299.73
2023-04-18T12:57:52.437Z,96293.85
2023-04-18T13:00:21.437Z,96294.67
2023-04-18T13:02:49.820Z,96294.20
2023-04-18T13:05:19.180Z,96295.69
2023-04-18T13:07:49.500Z,96293.08
2023-04-18T13:10:18.792Z,96289.93
2023-04-18T13:12:47.018Z,96292.27
2023-04-18T13:15:16.316Z,96296.58
2023-04-18T13:17:44.619Z,96290.19
2023-04-18T13:20:13.143Z,96288.70
2023-04-18T13:22:41.772Z,96284.63
2023-04-18T13:25:10.891Z,96276.51
2023-04-18T13:27:41.811Z,96280.70
2023-04-18T13:30:10.979Z,96277.92
2023-04-18T13:32:40.524Z,96277.63
2023-04-18T13:35:10.922Z,96278.12
2023-04-18T13:37:39.418Z,96277.73
2023-04-18T13:40:08.379Z,96277.90
2023-04-18T13:42:37.292Z,96279.41
2023-04-18T13:45:06.248Z,96278.56
2023-04-18T13:47:34.844Z,96276.27
2023-04-18T13:50:03.201Z,96273.39
2023-04-18T13:52:31.534Z,96266.98
2023-04-18T13:54:59.604Z,96267.88
2023-04-18T13:57:28.588Z,96265.85
2023-04-18T13:59:57.179Z,96266.63
2023-04-18T14:02:25.326Z,96262.60
2023-04-18T14:04:55.010Z,96265.81
2023-04-18T14:07:23.229Z,96264.57
2023-04-18T14:09:53.340Z,96260.31
2023-04-18T14:12:22.594Z,96256.95
2023-04-18T14:14:50.901Z,96257.34
2023-04-18T14:17:18.927Z,96258.88
2023-04-18T14:19:46.898Z,96258.80
2023-04-18T14:22:14.835Z,96259.97
2023-04-18T14:24:42.778Z,96259.45
2023-04-18T14:27:10.756Z,96258.55
2023-04-18T14:29:38.844Z,96254.00
2023-04-18T14:32:07.460Z,96257.16
2023-04-18T14:34:36.765Z,96256.36
2023-04-18T14:37:06.473Z,96254.73
2023-04-18T14:39:34.735Z,96256.57
2023-04-18T14:42:02.705Z,96254.66
2023-04-18T14:44:31.584Z,96254.79
2023-04-18T14:46:59.721Z,96254.58
2023-04-18T14:49:28.135Z,96256.73
2023-04-18T14:51:56.197Z,96258.13
2023-04-18T14:54:24.381Z,96259.44
2023-04-18T14:56:52.661Z,96256.89
2023-04-18T14:59:20.843Z,96255.56
2023-04-18T15:01:49.192Z,96253.18
2023-04-18T15:04:18.056Z,96257.58
2023-04-18T15:06:46.786Z,96258.39
2023-04-18T15:09:16.197Z,96256.10
2023-04-18T15:11:44.271Z,96254.61
2023-04-18T15:14:12.685Z,96250.82
2023-04-18T15:16:41.265Z,96251.41
2023-04-18T15:19:09.294Z,96251.64
2023-04-18T15:21:37.468Z,96247.37
2023-04-18T15:24:06.255Z,96249.48
2023-04-18T15:26:34.332Z,96252.16
2023-04-18T15:29:03.956Z,96253.61
2023-04-18T15:31:32.673Z,96251.70
2023-04-18T15:34:01.750Z,96250.84
2023-04-18T15:36:30.007Z,96248.77
2023-04-18T15:38:58.182Z,96250.80
2023-04-18T15:41:26.355Z,96248.67
2023-04-18T15:43:54.423Z,96244.65
2023-04-18T15:46:22.652Z,96244.96
2023-04-18T15:48:51.183Z,96246.83
2023-04-18T15:51:19.560Z,96244.27
2023-04-18T15:53:47.831Z,96242.39
2023-04-18T15:56:16.046Z,96243.34
2023-04-18T15:58:44.073Z,96241.73
2023-04-18T16:01:16.111Z,96244.03
2023-04-18T16:03:44.523Z,96241.62
2023-04-18T16:06:14.268Z,96243.91
2023-04-18T16:08:42.415Z,96247.67
2023-04-18T16:11:10.410Z,96247.64
2023-04-18T16:13:38.654Z,96248.83
2023-04-18T16:16:07.231Z,96243.65
2023-04-18T16:18:35.667Z,96250.99
2023-04-18T16:21:04.101Z,96251.75
2023-04-18T16:23:32.807Z,96250.04
2023-04-18T16:26:00.788Z,96248.71
2023-04-18T16:28:30.152Z,96250.77
2023-04-18T16:30:58.275Z,96248.54
2023-04-18T16:33:26.754Z,96255.27
2023-04-18T16:35:57.969Z,96254.98
2023-04-18T16:38:27.516Z,96253.62
2023-04-18T16:40:59.117Z,96252.69
2023-04-18T16:43:31.194Z,96257.27
2023-04-18T16:46:00.418Z,96255.95
2023-04-18T16:48:31.323Z,96262.22
2023-04-18T16:50:59.467Z,96261.59
2023-04-18T16:53:27.560Z,96261.55
2023-04-18T16:55:55.949Z,96265.36
2023-04-18T16:58:23.954Z,96268.65
2023-04-18T17:00:52.831Z,96268.19
2023-04-18T17:03:21.275Z,96266.34
2023-04-18T17:05:49.468Z,96266.16
2023-04-18T17:08:17.844Z,96266.13
2023-04-18T17:10:46.032Z,96262.61
2023-04-18T17:13:14.096Z,96264.70
2023-04-18T17:15:43.194Z,96263.05
2023-04-18T17:18:11.500Z,96262.59
2023-04-18T17:20:39.736Z,96261.80
2023-04-18T17:23:07.753Z,96268.89
2023-04-18T17:25:36.803Z,96265.52
2023-04-18T17:28:05.424Z,96269.42
2023-04-18T17:30:33.571Z,96268.41
2023-04-18T17:33:01.590Z,96271.74
2023-04-18T17:35:29.597Z,96271.71
2023-04-18T17:37:58.079Z,96275.41
2023-04-18T17:40:26.386Z,96278.94
2023-04-18T17:42:54.634Z,96275.84
2023-04-18T17:45:22.801Z,96280.41
2023-04-18T17:47:51.055Z,96277.73
2023-04-18T17:50:19.250Z,96280.84
2023-04-18T17:52:47.390Z,96280.98
2023-04-18T17:55:15.771Z,96283.95
2023-04-18T17:57:43.831Z,96280.40
2023-04-18T18:00:14.747Z,96281.51
2023-04-18T18:02:43.058Z,96277.11
2023-04-18T18:05:13.218Z,96272.79
2023-04-18T18:07:44.130Z,96274.67
2023-04-18T18:10:14.840Z,96271.43
2023-04-18T18:12:44.092Z,96274.47
2023-04-18T18:15:12.238Z,96278.63
2023-04-18T18:17:40.344Z,96277.22
2023-04-18T18:20:13.941Z,96275.64
2023-04-18T18:22:42.582Z,96275.29
2023-04-18T18:25:10.759Z,96273.69
2023-04-18T18:27:38.885Z,96278.59
2023-04-18T18:30:07.389Z,96276.98
2023-04-18T18:32:35.714Z,96275.96
2023-04-18T18:35:05.903Z,96272.98
2023-04-18T18:37:33.893Z,96275.32
2023-04-18T18:40:04.875Z,96275.81
2023-04-18T18:42:32.958Z,96275.17
2023-04-18T18:45:01.674Z,96275.04
2023-04-18T18:47:30.660Z,96276.36
2023-04-18T18:49:58.892Z,96273.90
2023-04-18T18:52:29.765Z,96276.75
2023-04-18T18:54:57.875Z,96279.80
2023-04-18T18:57:26.233Z,96277.13
2023-04-18T18:59:55.833Z,96280.66
2023-04-18T19:02:24.837Z,96280.45
2023-04-18T19:04:53.316Z,96279.93
2023-04-18T19:07:21.420Z,96276.98
2023-04-18T19:09:49.528Z,96275.64
2023-04-18T19:12:17.894Z,96273.83
2023-04-18T19:14:46.914Z,96274.94
2023-04-18T19:17:17.682Z,96274.03
2023-04-18T19:19:45.849Z,96275.15
2023-04-18T19:22:13.815Z,96273.70
2023-04-18T19:24:41.834Z,96272.73
2023-04-18T19:27:09.775Z,96272.14
2023-04-18T19:29:37.664Z,96273.05
2023-04-18T19:32:06.472Z,96271.27
2023-04-18T19:34:34.472Z,96272.35
2023-04-18T19:37:02.495Z,96274.08
2023-04-18T19:39:30.551Z,96280.11
2023-04-18T19:41:58.480Z,96280.97
2023-04-18T19:44:26.503Z,96288.45
2023-04-18T19:46:54.562Z,96287.33
2023-04-18T19:49:22.653Z,96289.04
2023-04-18T19:51:52.525Z,96287.48
2023-04-18T19:54:21.968Z,96291.39
2023-04-18T19:56:50.198Z,96292.30
2023-04-18T19:59:20.481Z,96290.58
2023-04-18T20:01:48.517Z,96292.98
2023-04-18T20:04:16.745Z,96294.35
2023-04-18T20:06:45.073Z,96295.14
2023-04-18T20:09:17.284Z,96293.56
2023-04-18T20:11:46.575Z,96294.19
2023-04-18T20:14:14.502Z,96293.44
2023-04-18T20:16:46.157Z,96293.84
2023-04-18T20:19:16.589Z,96295.66
2023-04-18T20:21:44.735Z,96295.35
2023-04-18T20:24:13.708Z,96290.26
2023-04-18T20:26:41.930Z,96293.91
2023-04-18T20:29:09.974Z,96298.89
2023-04-18T20:31:42.258Z,96296.23
2023-04-18T20:34:10.256Z,96295.36
2023-04-18T20:36:41.614Z,96297.73
2023-04-18T20:39:09.696Z,96295.95
2023-04-18T20:41:37.717Z,96296.08
2023-04-18T20:44:06.820Z,96290.54
2023-04-18T20:46:34.902Z,96289.80
2023-04-18T20:49:02.926Z,96287.17
2023-04-18T20:51:31.812Z,96287.37
2023-04-18T20:53:59.816Z,96283.91
2023-04-18T20:56:27.853Z,96282.86
2023-04-18T20:58:55.839Z,96283.56
2023-04-18T21:01:23.903Z,96281.38
2023-04-18T21:03:52.272Z,96280.44
2023-04-18T21:06:22.188Z,96282.50
2023-04-18T21:08:50.794Z,96281.02
2023-04-18T21:11:18.798Z,96285.67
2023-04-18T21:13:46.721Z,96285.32
2023-04-18T21:16:14.774Z,96280.23
2023-04-18T21:18:42.939Z,96278.93
2023-04-18T21:21:11.739Z,96273.65
2023-04-18T21:23:43.814Z,96273.64
2023-04-18T21:26:13.148Z,96274.70
2023-04-18T21:28:56.584Z,96272.02
2023-04-18T21:31:25.299Z,96269.70
2023-04-18T21:33:57.398Z,96266.27
2023-04-18T21:36:27.113Z,96266.09
2023-04-18T21:38:56.106Z,96267.73
2023-04-18T21:41:24.381Z,96270.30
2023-04-18T21:43:52.554Z,96269.27
2023-04-18T21:46:20.764Z,96270.98
2023-04-18T21:48:48.854Z,96274.71
2023-04-18T21:51:16.917Z,96271.06
2023-04-18T21:53:45.025Z,96270.67
2023-04-18T21:56:12.992Z,96271.08
2023-04-18T21:58:41.048Z,96269.47
2023-04-18T22:01:09.113Z,96266.14
2023-04-18T22:03:37.322Z,96265.54
2023-04-18T22:06:05.901Z,96266.07
2023-04-18T22:08:33.975Z,96266.44
2023-04-18T22:11:01.967Z,96265.41
2023-04-18T22:13:32.929Z,96262.61
2023-04-18T22:16:04.233Z,96264.38
2023-04-18T22:18:33.677Z,96261.81
2023-04-18T22:21:03.424Z,96255.74
2023-04-18T22:23:31.552Z,96257.30
2023-04-18T22:25:59.666Z,96256.01
2023-04-18T22:28:30.919Z,96255.40
2023-04-18T22:30:58.933Z,96255.83
2023-04-18T22:33:27.089Z,96254.06
2023-04-18T22:35:55.750Z,96252.81
2023-04-18T22:38:25.167Z,96250.02
2023-04-18T22:40:53.239Z,96250.77
2023-04-18T22:43:23.669Z,96249.95
2023-04-18T22:45:51.777Z,96248.95
2023-04-18T22:48:20.345Z,96243.05
2023-04-18T22:50:49.951Z,96242.30
2023-04-18T22:53:18.173Z,96240.74
2023-04-18T22:55:46.626Z,96239.19
2023-04-18T22:58:14.911Z,96237.33
2023-04-18T23:00:42.976Z,96237.37
2023-04-18T23:03:11.271Z,96233.61
2023-04-18T23:05:39.962Z,96231.95
2023-04-18T23:08:08.182Z,96233.29
2023-04-18T23:10:36.261Z,96229.14
2023-04-18T23:13:04.384Z,96225.95
2023-04-18T23:15:32.429Z,96217.84
2023-04-18T23:18:00.695Z,96219.94
2023-04-18T23:20:28.765Z,96216.24
2023-04-18T23:22:56.758Z,96214.36
2023-04-18T23:25:24.761Z,96208.73
2023-04-18T23:27:52.731Z,96207.18
2023-04-18T23:30:20.670Z,96202.20
2023-04-18T23:32:48.773Z,96200.11
2023-04-18T23:35:16.920Z,96200.01
2023-04-18T23:37:44.998Z,96197.54
2023-04-18T23:40:13.543Z,96194.58
2023-04-18T23:42:42.198Z,96195.10
2023-04-18T23:45:10.882Z,96193.96
2023-04-18T23:47:38.868Z,96193.05
2023-04-18T23:50:07.758Z,96186.58
2023-04-18T23:52:35.859Z,96186.36
2023-04-18T23:55:04.094Z,96181.86
2023-04-18T23:57:32.217Z,96180.98
